Portada
METAR-TAF:

METAR-TAF

Aeropuertos :

Riad, Arabia Saudita

latitud: 24-43N, longitud: 046-44E, altitud: 635 m

METAR: falta

Hora: 02:46 (23:46 UTC)

Pronóstico

El informe se hizo hace 46 minutos, a las 23:00 UTC
Pronóstico válido del 25 a las 00 UTC al 26 a las 06 UTC
Viento 12 kt del sur
Visibilidad 10 km o más
sin nubes por debajo de 1500 m y sin presencia de cumulonimbus.
Evolucionando progresivamente
del 25 a las 04 UTC al 25 a las 06 UTC
Viento 15 kt del oeste-noroeste
Temporalmente
del 25 a las 06 UTC al 25 a las 16 UTC
Visibilidad: 4000 m
Ventisca alta de polvo

TAF: OERY 242300Z 2500/2606 18012KT CAVOK BECMG 2504/2506 30015KT TEMPO 2506/2516 4000 BLDU

Observaciones y pronósticos meteorológicos de más de 4000 aeropuertos (mensajes METAR y TAF).

Los puntos amarillos y rojos representan las estaciones disponibles.

Ponga el ratón en el punto deseado para ver el nombre de la estación.

Haga clic para ver las observaciones y los pronósticos meteorológicos.

Para cambiar el mapa : haga clic en los botones verdes con una cruz de color negro para hacer un zoom, en el botón verde con un guión para alejar o en las flechas verdes para mapas adyacentes.


METAR-TAF: